sensor_id;sensor_type;location;lat;lon;timestamp;pressure;altitude;pressure_sealevel;temperature;humidity
51123;BME280;37162;41.724;13.346;2023-02-17T00:03:35;98016.00;;;15.99;56.98
51123;BME280;37162;41.724;13.346;2023-02-17T00:06:08;98010.63;;;15.99;56.99
51123;BME280;37162;41.724;13.346;2023-02-17T00:08:33;98009.19;;;15.96;56.87
51123;BME280;37162;41.724;13.346;2023-02-17T00:10:59;98012.69;;;15.97;56.88
51123;BME280;37162;41.724;13.346;2023-02-17T00:13:25;98006.06;;;15.93;57.11
51123;BME280;37162;41.724;13.346;2023-02-17T00:15:50;98008.34;;;15.96;57.20
51123;BME280;37162;41.724;13.346;2023-02-17T00:18:16;98019.69;;;15.98;57.22
51123;BME280;37162;41.724;13.346;2023-02-17T00:20:42;98016.19;;;15.97;56.91
51123;BME280;37162;41.724;13.346;2023-02-17T00:23:07;98012.69;;;15.97;57.01
51123;BME280;37162;41.724;13.346;2023-02-17T00:25:32;98000.06;;;15.91;56.90
51123;BME280;37162;41.724;13.346;2023-02-17T00:27:58;98013.31;;;15.99;56.86
51123;BME280;37162;41.724;13.346;2023-02-17T00:30:23;98003.16;;;15.94;57.00
51123;BME280;37162;41.724;13.346;2023-02-17T00:32:49;98017.03;;;15.98;57.22
51123;BME280;37162;41.724;13.346;2023-02-17T00:35:14;98014.34;;;15.98;56.75
51123;BME280;37162;41.724;13.346;2023-02-17T00:37:40;98013.50;;;15.97;56.74
51123;BME280;37162;41.724;13.346;2023-02-17T00:40:10;97999.84;;;15.86;56.94
51123;BME280;37162;41.724;13.346;2023-02-17T00:42:35;98011.66;;;15.98;56.83
51123;BME280;37162;41.724;13.346;2023-02-17T00:45:01;98013.50;;;15.97;57.06
51123;BME280;37162;41.724;13.346;2023-02-17T00:47:26;98015.38;;;15.97;56.93
51123;BME280;37162;41.724;13.346;2023-02-17T00:49:52;98003.81;;;15.96;56.82
51123;BME280;37162;41.724;13.346;2023-02-17T00:52:17;98010.00;;;15.97;56.79
51123;BME280;37162;41.724;13.346;2023-02-17T00:54:42;98005.47;;;15.97;56.93
51123;BME280;37162;41.724;13.346;2023-02-17T00:57:08;97992.28;;;15.96;56.94
51123;BME280;37162;41.724;13.346;2023-02-17T00:59:33;97996.59;;;15.97;57.04
51123;BME280;37162;41.724;13.346;2023-02-17T01:01:59;97990.41;;;15.96;56.99
51123;BME280;37162;41.724;13.346;2023-02-17T01:04:24;97991.25;;;15.97;56.94
51123;BME280;37162;41.724;13.346;2023-02-17T01:06:50;97990.22;;;15.98;57.05
51123;BME280;37162;41.724;13.346;2023-02-17T01:09:15;97995.56;;;15.98;56.94
51123;BME280;37162;41.724;13.346;2023-02-17T01:11:41;97990.22;;;15.98;57.12
51123;BME280;37162;41.724;13.346;2023-02-17T01:14:07;97991.88;;;15.99;57.36
51123;BME280;37162;41.724;13.346;2023-02-17T01:16:44;97990.00;;;15.99;57.36
51123;BME280;37162;41.724;13.346;2023-02-17T01:19:13;97984.66;;;15.99;57.57
51123;BME280;37162;41.724;13.346;2023-02-17T01:21:39;97977.59;;;15.92;57.48
51123;BME280;37162;41.724;13.346;2023-02-17T01:24:06;97989.00;;;16.00;57.56
51123;BME280;37162;41.724;13.346;2023-02-17T01:26:34;97982.81;;;16.00;57.58
51123;BME280;37162;41.724;13.346;2023-02-17T01:29:01;97980.16;;;16.00;57.16
51123;BME280;37162;41.724;13.346;2023-02-17T01:31:27;97969.41;;;16.00;57.22
51123;BME280;37162;41.724;13.346;2023-02-17T01:33:55;97966.75;;;16.00;57.04
51123;BME280;37162;41.724;13.346;2023-02-17T01:36:21;97972.94;;;16.00;56.92
51123;BME280;37162;41.724;13.346;2023-02-17T01:38:47;97961.97;;;15.95;57.13
51123;BME280;37162;41.724;13.346;2023-02-17T01:41:13;97966.75;;;16.00;56.89
51123;BME280;37162;41.724;13.346;2023-02-17T01:43:40;97955.16;;;15.99;56.78
51123;BME280;37162;41.724;13.346;2023-02-17T01:46:07;97961.38;;;16.00;56.95
51123;BME280;37162;41.724;13.346;2023-02-17T01:48:46;97948.97;;;15.99;56.59
51123;BME280;37162;41.724;13.346;2023-02-17T01:51:21;97960.72;;;15.98;56.73
51123;BME280;37162;41.724;13.346;2023-02-17T01:53:52;97959.91;;;15.97;56.94
51123;BME280;37162;41.724;13.346;2023-02-17T01:56:21;97963.41;;;15.98;56.81
51123;BME280;37162;41.724;13.346;2023-02-17T01:58:52;97953.72;;;15.97;56.81
51123;BME280;37162;41.724;13.346;2023-02-17T02:01:19;97949.41;;;15.96;56.73
51123;BME280;37162;41.724;13.346;2023-02-17T02:03:46;97956.59;;;15.95;56.72
51123;BME280;37162;41.724;13.346;2023-02-17T02:06:15;97953.94;;;15.95;56.73
51123;BME280;37162;41.724;13.346;2023-02-17T02:09:04;97959.28;;;15.95;56.68
51123;BME280;37162;41.724;13.346;2023-02-17T02:11:31;97952.47;;;15.93;56.82
51123;BME280;37162;41.724;13.346;2023-02-17T02:13:57;97945.25;;;15.93;56.78
51123;BME280;37162;41.724;13.346;2023-02-17T02:24:12;97929.38;;;15.92;57.30
51123;BME280;37162;41.724;13.346;2023-02-17T02:27:07;97932.06;;;15.92;57.16
51123;BME280;37162;41.724;13.346;2023-02-17T02:32:39;97928.53;;;15.91;56.91
51123;BME280;37162;41.724;13.346;2023-02-17T02:35:20;97929.38;;;15.92;56.89
51123;BME280;37162;41.724;13.346;2023-02-17T02:40:19;97933.69;;;15.93;56.82
51123;BME280;37162;41.724;13.346;2023-02-17T02:42:46;97927.50;;;15.92;56.72
51123;BME280;37162;41.724;13.346;2023-02-17T02:45:12;97927.50;;;15.92;56.72
51123;BME280;37162;41.724;13.346;2023-02-17T02:47:53;97932.06;;;15.92;56.75
51123;BME280;37162;41.724;13.346;2023-02-17T02:50:25;97924.00;;;15.92;56.63
51123;BME280;37162;41.724;13.346;2023-02-17T02:53:12;97924.00;;;15.92;56.71
51123;BME280;37162;41.724;13.346;2023-02-17T02:55:51;97925.88;;;15.91;56.69
51123;BME280;37162;41.724;13.346;2023-02-17T03:06:39;97790.75;;;15.03;56.59
51123;BME280;37162;41.724;13.346;2023-02-17T03:09:22;97920.88;;;15.88;56.73
51123;BME280;37162;41.724;13.346;2023-02-17T03:11:49;97913.06;;;15.87;56.75
51123;BME280;37162;41.724;13.346;2023-02-17T03:14:18;97917.81;;;15.91;56.97
51123;BME280;37162;41.724;13.346;2023-02-17T03:16:44;97921.28;;;15.85;56.89
51123;BME280;37162;41.724;13.346;2023-02-17T03:19:11;97923.19;;;15.91;56.93
51123;BME280;37162;41.724;13.346;2023-02-17T03:24:03;97922.16;;;15.92;57.39
51123;BME280;37162;41.724;13.346;2023-02-17T03:26:29;97915.91;;;15.85;57.57
51123;BME280;37162;41.724;13.346;2023-02-17T03:28:54;97920.28;;;15.93;57.59
51123;BME280;37162;41.724;13.346;2023-02-17T03:31:20;97916.78;;;15.92;57.54
51123;BME280;37162;41.724;13.346;2023-02-17T03:33:45;97921.13;;;15.93;57.22
51123;BME280;37162;41.724;13.346;2023-02-17T03:36:11;97925.66;;;15.93;57.14
51123;BME280;37162;41.724;13.346;2023-02-17T03:38:36;97920.28;;;15.93;56.94
51123;BME280;37162;41.724;13.346;2023-02-17T03:41:01;97923.81;;;15.93;56.77
51123;BME280;37162;41.724;13.346;2023-02-17T03:43:27;97931.03;;;15.93;56.81
51123;BME280;37162;41.724;13.346;2023-02-17T03:45:52;97935.56;;;15.92;56.77
51123;BME280;37162;41.724;13.346;2023-02-17T03:48:18;97941.75;;;15.93;56.72
51123;BME280;37162;41.724;13.346;2023-02-17T03:50:43;97910.53;;;15.78;56.69
51123;BME280;37162;41.724;13.346;2023-02-17T03:53:10;97942.78;;;15.92;56.61
51123;BME280;37162;41.724;13.346;2023-02-17T03:55:35;97937.59;;;15.90;56.63
51123;BME280;37162;41.724;13.346;2023-02-17T03:58:01;97946.47;;;15.91;56.51
51123;BME280;37162;41.724;13.346;2023-02-17T04:00:26;97946.47;;;15.91;56.60
51123;BME280;37162;41.724;13.346;2023-02-17T04:02:51;97949.16;;;15.91;56.56
51123;BME280;37162;41.724;13.346;2023-02-17T04:05:17;97956.34;;;15.90;56.63
51123;BME280;37162;41.724;13.346;2023-02-17T04:07:42;97952.00;;;15.89;56.73
51123;BME280;37162;41.724;13.346;2023-02-17T04:10:08;97946.63;;;15.82;56.75
51123;BME280;37162;41.724;13.346;2023-02-17T04:12:33;97960.25;;;15.88;56.78
51123;BME280;37162;41.724;13.346;2023-02-17T04:14:59;97969.13;;;15.88;56.64
51123;BME280;37162;41.724;13.346;2023-02-17T04:17:24;97958.78;;;15.85;56.66
51123;BME280;37162;41.724;13.346;2023-02-17T04:19:50;97962.31;;;15.86;56.68
51123;BME280;37162;41.724;13.346;2023-02-17T04:22:15;97956.09;;;15.85;56.74
51123;BME280;37162;41.724;13.346;2023-02-17T04:24:41;97960.47;;;15.86;56.80
51123;BME280;37162;41.724;13.346;2023-02-17T04:27:06;97959.81;;;15.84;56.75
51123;BME280;37162;41.724;13.346;2023-02-17T04:29:33;97963.16;;;15.86;56.82
51123;BME280;37162;41.724;13.346;2023-02-17T04:31:58;97972.84;;;15.87;56.94
51123;BME280;37162;41.724;13.346;2023-02-17T04:34:23;97969.34;;;15.87;56.75
51123;BME280;37162;41.724;13.346;2023-02-17T04:36:49;97947.41;;;15.76;56.68
51123;BME280;37162;41.724;13.346;2023-02-17T04:39:14;97964.16;;;15.85;56.71
51123;BME280;37162;41.724;13.346;2023-02-17T04:41:40;97967.47;;;15.87;56.43
51123;BME280;37162;41.724;13.346;2023-02-17T04:44:05;97959.63;;;15.86;56.46
51123;BME280;37162;41.724;13.346;2023-02-17T04:46:31;97964.16;;;15.85;56.64
51123;BME280;37162;41.724;13.346;2023-02-17T04:48:56;97968.69;;;15.84;56.50
51123;BME280;37162;41.724;13.346;2023-02-17T04:51:22;97972.84;;;15.87;56.59
51123;BME280;37162;41.724;13.346;2023-02-17T04:53:47;97969.50;;;15.85;56.41
51123;BME280;37162;41.724;13.346;2023-02-17T04:56:12;97963.31;;;15.84;56.58
51123;BME280;37162;41.724;13.346;2023-02-17T04:58:38;97950.50;;;15.80;56.50
51123;BME280;37162;41.724;13.346;2023-02-17T05:01:03;97965.81;;;15.86;56.48
51123;BME280;37162;41.724;13.346;2023-02-17T05:03:29;97964.16;;;15.85;56.53
51123;BME280;37162;41.724;13.346;2023-02-17T05:05:54;97965.00;;;15.86;56.63
51123;BME280;37162;41.724;13.346;2023-02-17T05:08:20;97948.41;;;15.75;56.60
51123;BME280;37162;41.724;13.346;2023-02-17T05:10:46;97958.78;;;15.85;56.61
51123;BME280;37162;41.724;13.346;2023-02-17T05:13:11;97942.88;;;15.77;56.55
51123;BME280;37162;41.724;13.346;2023-02-17T05:15:37;97959.81;;;15.84;56.72
51123;BME280;37162;41.724;13.346;2023-02-17T05:18:02;97961.69;;;15.83;56.55
51123;BME280;37162;41.724;13.346;2023-02-17T05:20:28;97954.47;;;15.84;56.48
51123;BME280;37162;41.724;13.346;2023-02-17T05:22:53;97958.78;;;15.85;56.60
51123;BME280;37162;41.724;13.346;2023-02-17T05:25:19;97956.97;;;15.86;56.75
51123;BME280;37162;41.724;13.346;2023-02-17T05:27:44;97955.28;;;15.84;56.91
51123;BME280;37162;41.724;13.346;2023-02-17T05:30:10;97956.97;;;15.86;57.26
51123;BME280;37162;41.724;13.346;2023-02-17T05:32:36;97954.28;;;15.86;57.10
51123;BME280;37162;41.724;13.346;2023-02-17T05:35:01;97949.75;;;15.86;57.18
51123;BME280;37162;41.724;13.346;2023-02-17T05:37:27;97960.47;;;15.86;57.39
51123;BME280;37162;41.724;13.346;2023-02-17T05:39:52;97958.78;;;15.85;57.02
51123;BME280;37162;41.724;13.346;2023-02-17T05:42:17;97965.00;;;15.86;56.76
51123;BME280;37162;41.724;13.346;2023-02-17T05:44:43;97965.00;;;15.86;56.75
51123;BME280;37162;41.724;13.346;2023-02-17T05:47:08;97961.47;;;15.85;56.74
51123;BME280;37162;41.724;13.346;2023-02-17T05:49:34;97968.69;;;15.84;56.56
51123;BME280;37162;41.724;13.346;2023-02-17T05:51:59;97967.84;;;15.84;56.61
51123;BME280;37162;41.724;13.346;2023-02-17T05:54:24;97974.03;;;15.84;56.46
51123;BME280;37162;41.724;13.346;2023-02-17T05:56:50;97956.66;;;15.74;56.46
51123;BME280;37162;41.724;13.346;2023-02-17T05:59:15;97980.44;;;15.83;56.56
51123;BME280;37162;41.724;13.346;2023-02-17T06:01:40;97984.13;;;15.82;56.77
51123;BME280;37162;41.724;13.346;2023-02-17T06:04:06;97978.13;;;15.80;56.62
51123;BME280;37162;41.724;13.346;2023-02-17T06:06:31;97988.03;;;15.80;56.66
51123;BME280;37162;41.724;13.346;2023-02-17T06:08:57;97982.88;;;15.78;56.67
51123;BME280;37162;41.724;13.346;2023-02-17T06:11:22;97996.28;;;15.78;56.64
51123;BME280;37162;41.724;13.346;2023-02-17T06:13:47;97993.78;;;15.77;56.80
51123;BME280;37162;41.724;13.346;2023-02-17T06:16:13;98002.84;;;15.76;56.83
51123;BME280;37162;41.724;13.346;2023-02-17T06:18:38;97996.22;;;15.72;56.75
51123;BME280;37162;41.724;13.346;2023-02-17T06:21:04;98011.91;;;15.75;56.64
51123;BME280;37162;41.724;13.346;2023-02-17T06:23:29;98007.38;;;15.75;56.69
51123;BME280;37162;41.724;13.346;2023-02-17T06:25:55;98011.91;;;15.75;56.93
51123;BME280;37162;41.724;13.346;2023-02-17T06:28:20;98016.44;;;15.74;56.55
51123;BME280;37162;41.724;13.346;2023-02-17T06:30:46;98010.22;;;15.67;56.81
51123;BME280;37162;41.724;13.346;2023-02-17T06:33:11;98021.78;;;15.74;56.78
51123;BME280;37162;41.724;13.346;2023-02-17T06:35:37;98023.44;;;15.75;56.77
51123;BME280;37162;41.724;13.346;2023-02-17T06:38:02;98028.81;;;15.75;56.87
51123;BME280;37162;41.724;13.346;2023-02-17T06:40:28;98027.97;;;15.75;56.80
51123;BME280;37162;41.724;13.346;2023-02-17T06:42:53;98026.13;;;15.75;56.87
51123;BME280;37162;41.724;13.346;2023-02-17T06:45:19;98028.81;;;15.75;56.89
51123;BME280;37162;41.724;13.346;2023-02-17T06:47:44;98024.03;;;15.71;56.79
51123;BME280;37162;41.724;13.346;2023-02-17T06:50:10;98033.34;;;15.75;56.77
51123;BME280;37162;41.724;13.346;2023-02-17T06:52:36;98039.50;;;15.75;56.53
51123;BME280;37162;41.724;13.346;2023-02-17T06:55:01;98045.69;;;15.76;56.71
51123;BME280;37162;41.724;13.346;2023-02-17T06:57:27;98050.06;;;15.77;56.75
51123;BME280;37162;41.724;13.346;2023-02-17T06:59:53;98042.03;;;15.77;56.80
51123;BME280;37162;41.724;13.346;2023-02-17T07:02:18;98032.50;;;15.74;56.64
51123;BME280;37162;41.724;13.346;2023-02-17T07:04:43;98043.03;;;15.76;56.55
51123;BME280;37162;41.724;13.346;2023-02-17T07:07:09;98046.56;;;15.76;56.67
51123;BME280;37162;41.724;13.346;2023-02-17T07:09:35;98043.03;;;15.76;56.57
51123;BME280;37162;41.724;13.346;2023-02-17T07:12:01;98041.56;;;15.73;56.68
51123;BME280;37162;41.724;13.346;2023-02-17T07:14:27;98043.88;;;15.76;56.72
51123;BME280;37162;41.724;13.346;2023-02-17T07:16:53;98051.91;;;15.76;56.61
51123;BME280;37162;41.724;13.346;2023-02-17T07:19:18;98051.91;;;15.76;56.72
51123;BME280;37162;41.724;13.346;2023-02-17T07:21:44;98045.69;;;15.76;56.63
51123;BME280;37162;41.724;13.346;2023-02-17T07:24:10;98050.88;;;15.77;56.65
51123;BME280;37162;41.724;13.346;2023-02-17T07:26:36;98042.03;;;15.77;56.52
51123;BME280;37162;41.724;13.346;2023-02-17T07:29:02;98044.72;;;15.77;56.53
51123;BME280;37162;41.724;13.346;2023-02-17T07:31:28;98040.09;;;15.71;56.34
51123;BME280;37162;41.724;13.346;2023-02-17T07:33:53;98042.03;;;15.77;56.42
51123;BME280;37162;41.724;13.346;2023-02-17T07:36:19;98051.50;;;15.79;56.39
51123;BME280;37162;41.724;13.346;2023-02-17T07:38:44;98050.06;;;15.77;56.26
51123;BME280;37162;41.724;13.346;2023-02-17T07:41:13;98030.84;;;15.73;56.29
51123;BME280;37162;41.724;13.346;2023-02-17T07:43:39;98050.94;;;15.84;56.36
51123;BME280;37162;41.724;13.346;2023-02-17T07:46:05;98045.19;;;15.87;56.29
51123;BME280;37162;41.724;13.346;2023-02-17T07:48:31;98053.03;;;15.89;56.24
51123;BME280;37162;41.724;13.346;2023-02-17T07:50:56;98040.03;;;15.86;56.20
51123;BME280;37162;41.724;13.346;2023-02-17T07:53:22;98042.50;;;15.87;56.16
51123;BME280;37162;41.724;13.346;2023-02-17T07:55:47;98058.84;;;15.92;56.08
51123;BME280;37162;41.724;13.346;2023-02-17T07:58:13;98059.66;;;15.93;55.94
51123;BME280;37162;41.724;13.346;2023-02-17T08:00:38;98064.81;;;15.94;56.04
51123;BME280;37162;41.724;13.346;2023-02-17T08:03:04;98062.34;;;15.93;56.01
51123;BME280;37162;41.724;13.346;2023-02-17T08:05:29;98076.38;;;15.95;55.94
51123;BME280;37162;41.724;13.346;2023-02-17T08:07:55;98071.00;;;15.95;55.87
51123;BME280;37162;41.724;13.346;2023-02-17T08:10:40;98076.00;;;15.98;56.06
51123;BME280;37162;41.724;13.346;2023-02-17T08:13:26;98069.41;;;16.00;55.76
51123;BME280;37162;41.724;13.346;2023-02-17T08:15:52;98075.19;;;16.04;55.40
51123;BME280;37162;41.724;13.346;2023-02-17T08:18:17;98070.50;;;16.06;54.94
51123;BME280;37162;41.724;13.346;2023-02-17T08:20:43;98078.97;;;16.09;54.72
51123;BME280;37162;41.724;13.346;2023-02-17T08:23:08;98076.72;;;16.13;54.75
51123;BME280;37162;41.724;13.346;2023-02-17T08:25:34;98077.16;;;16.17;54.50
51123;BME280;37162;41.724;13.346;2023-02-17T08:28:01;98061.44;;;16.14;54.83
51123;BME280;37162;41.724;13.346;2023-02-17T08:30:26;98065.47;;;16.24;54.91
51123;BME280;37162;41.724;13.346;2023-02-17T08:32:52;98059.66;;;16.21;55.11
51123;BME280;37162;41.724;13.346;2023-02-17T08:35:17;98070.66;;;16.32;55.48
51123;BME280;37162;41.724;13.346;2023-02-17T08:37:50;98066.56;;;16.36;55.34
51123;BME280;37162;41.724;13.346;2023-02-17T08:40:16;98054.19;;;16.35;55.43
51123;BME280;37162;41.724;13.346;2023-02-17T08:42:42;98060.22;;;16.44;55.45
51123;BME280;37162;41.724;13.346;2023-02-17T08:45:08;98065.19;;;16.47;54.85
51123;BME280;37162;41.724;13.346;2023-02-17T08:47:35;98069.13;;;16.51;55.23
51123;BME280;37162;41.724;13.346;2023-02-17T08:50:01;98069.56;;;16.55;55.07
51123;BME280;37162;41.724;13.346;2023-02-17T08:52:28;98074.31;;;16.59;54.97
51123;BME280;37162;41.724;13.346;2023-02-17T08:54:53;98070.22;;;16.64;55.23
51123;BME280;37162;41.724;13.346;2023-02-17T08:57:19;98074.38;;;16.66;55.06
51123;BME280;37162;41.724;13.346;2023-02-17T08:59:45;98072.97;;;16.70;54.89
51123;BME280;37162;41.724;13.346;2023-02-17T09:02:15;98077.13;;;16.73;54.94
51123;BME280;37162;41.724;13.346;2023-02-17T09:04:40;98075.69;;;16.77;54.72
51123;BME280;37162;41.724;13.346;2023-02-17T09:07:09;98069.94;;;16.80;54.71
51123;BME280;37162;41.724;13.346;2023-02-17T09:09:35;98069.53;;;16.83;54.86
51123;BME280;37162;41.724;13.346;2023-02-17T09:12:01;98079.03;;;16.85;54.83
51123;BME280;37162;41.724;13.346;2023-02-17T09:14:26;98078.22;;;16.85;54.89
51123;BME280;37162;41.724;13.346;2023-02-17T09:16:53;98073.47;;;16.87;54.71
51123;BME280;37162;41.724;13.346;2023-02-17T09:19:20;98084.22;;;16.94;54.72
51123;BME280;37162;41.724;13.346;2023-02-17T09:21:46;98081.13;;;16.97;54.67
51123;BME280;37162;41.724;13.346;2023-02-17T09:24:13;98077.63;;;16.96;54.46
51123;BME280;37162;41.724;13.346;2023-02-17T09:26:38;98063.38;;;16.96;54.48
51123;BME280;37162;41.724;13.346;2023-02-17T09:29:04;98082.84;;;17.04;54.45
51123;BME280;37162;41.724;13.346;2023-02-17T09:31:30;98077.25;;;17.06;54.25
51123;BME280;37162;41.724;13.346;2023-02-17T09:33:56;98071.66;;;17.07;54.17
51123;BME280;37162;41.724;13.346;2023-02-17T09:36:35;98075.81;;;17.10;53.78
51123;BME280;37162;41.724;13.346;2023-02-17T09:39:02;98079.97;;;17.13;53.81
51123;BME280;37162;41.724;13.346;2023-02-17T09:41:40;98077.91;;;17.15;53.54
51123;BME280;37162;41.724;13.346;2023-02-17T09:44:21;98070.47;;;17.17;53.57
51123;BME280;37162;41.724;13.346;2023-02-17T09:47:03;98069.25;;;17.19;53.64
51123;BME280;37162;41.724;13.346;2023-02-17T09:49:38;98075.03;;;17.23;53.61
51123;BME280;37162;41.724;13.346;2023-02-17T09:54:52;98070.28;;;17.25;53.46
51123;BME280;37162;41.724;13.346;2023-02-17T09:57:24;98056.03;;;17.24;53.53
51123;BME280;37162;41.724;13.346;2023-02-17T09:59:55;98056.91;;;17.31;53.35
51123;BME280;37162;41.724;13.346;2023-02-17T10:02:33;98054.81;;;17.33;53.29
51123;BME280;37162;41.724;13.346;2023-02-17T10:05:06;98052.75;;;17.35;53.47
51123;BME280;37162;41.724;13.346;2023-02-17T10:07:42;98058.75;;;17.37;53.39
51123;BME280;37162;41.724;13.346;2023-02-17T10:10:14;98058.13;;;17.35;53.63
51123;BME280;37162;41.724;13.346;2023-02-17T10:12:44;98062.06;;;17.40;53.70
51123;BME280;37162;41.724;13.346;2023-02-17T10:15:15;98059.19;;;17.41;53.65
51123;BME280;37162;41.724;13.346;2023-02-17T10:23:29;98054.22;;;17.45;53.68
51123;BME280;37162;41.724;13.346;2023-02-17T10:31:36;98060.22;;;17.47;53.65
51123;BME280;37162;41.724;13.346;2023-02-17T10:34:33;98052.78;;;17.49;53.82
51123;BME280;37162;41.724;13.346;2023-02-17T10:37:01;98055.28;;;17.50;53.79
51123;BME280;37162;41.724;13.346;2023-02-17T10:39:38;98053.19;;;17.52;53.53
51123;BME280;37162;41.724;13.346;2023-02-17T10:42:46;98045.75;;;17.54;53.48
51123;BME280;37162;41.724;13.346;2023-02-17T10:45:12;98038.50;;;17.55;53.62
51123;BME280;37162;41.724;13.346;2023-02-17T10:47:40;98025.50;;;17.52;53.79
51123;BME280;37162;41.724;13.346;2023-02-17T10:50:16;98035.41;;;17.58;53.69
51123;BME280;37162;41.724;13.346;2023-02-17T10:52:43;98019.09;;;17.59;54.08
51123;BME280;37162;41.724;13.346;2023-02-17T10:55:32;98025.91;;;17.62;53.86
51123;BME280;37162;41.724;13.346;2023-02-17T10:58:28;98022.00;;;17.65;53.67
51123;BME280;37162;41.724;13.346;2023-02-17T11:00:55;98000.50;;;17.58;53.59
51123;BME280;37162;41.724;13.346;2023-02-17T11:03:27;98015.38;;;17.67;53.61
51123;BME280;37162;41.724;13.346;2023-02-17T11:05:57;98017.66;;;17.70;53.41
51123;BME280;37162;41.724;13.346;2023-02-17T11:13:39;98011.69;;;17.75;54.01
51123;BME280;37162;41.724;13.346;2023-02-17T11:16:41;98018.72;;;17.76;53.99
51123;BME280;37162;41.724;13.346;2023-02-17T11:19:16;98009.84;;;17.75;54.02
51123;BME280;37162;41.724;13.346;2023-02-17T11:21:46;98006.09;;;17.70;48.46
51123;BME280;37162;41.724;13.346;2023-02-17T11:24:11;97996.59;;;17.74;51.50
51123;BME280;37162;41.724;13.346;2023-02-17T11:26:37;97998.25;;;17.75;52.49
51123;BME280;37162;41.724;13.346;2023-02-17T11:29:14;97992.66;;;17.76;53.07
51123;BME280;37162;41.724;13.346;2023-02-17T11:31:40;97985.19;;;17.78;52.84
51123;BME280;37162;41.724;13.346;2023-02-17T11:34:14;97980.84;;;17.71;46.94
51123;BME280;37162;41.724;13.346;2023-02-17T11:36:42;97978.38;;;17.62;43.80
51123;BME280;37162;41.724;13.346;2023-02-17T11:39:16;97959.97;;;17.53;43.88
51123;BME280;37162;41.724;13.346;2023-02-17T11:41:42;97975.88;;;17.54;43.19
51123;BME280;37162;41.724;13.346;2023-02-17T11:44:08;97962.66;;;17.53;44.21
51123;BME280;37162;41.724;13.346;2023-02-17T11:46:37;97959.56;;;17.49;41.78
51123;BME280;37162;41.724;13.346;2023-02-17T11:54:55;97952.75;;;17.33;40.41
51123;BME280;37162;41.724;13.346;2023-02-17T11:57:39;97942.00;;;17.33;41.35
51123;BME280;37162;41.724;13.346;2023-02-17T12:03:11;97939.13;;;17.42;41.89
51123;BME280;37162;41.724;13.346;2023-02-17T12:08:56;97938.91;;;17.43;42.51
51123;BME280;37162;41.724;13.346;2023-02-17T12:11:59;97934.34;;;17.44;41.51
51123;BME280;37162;41.724;13.346;2023-02-17T12:17:50;97938.50;;;17.46;47.14
51123;BME280;37162;41.724;13.346;2023-02-17T12:25:32;97913.69;;;17.44;46.51
51123;BME280;37162;41.724;13.346;2023-02-17T12:36:04;97904.16;;;17.55;49.96
51123;BME280;37162;41.724;13.346;2023-02-17T12:38:32;97900.47;;;17.56;50.23
51123;BME280;37162;41.724;13.346;2023-02-17T12:41:05;97899.19;;;17.58;50.64
51123;BME280;37162;41.724;13.346;2023-02-17T12:43:45;97893.63;;;17.60;50.94
51123;BME280;37162;41.724;13.346;2023-02-17T12:46:15;97891.78;;;17.60;51.00
51123;BME280;37162;41.724;13.346;2023-02-17T12:49:02;97897.34;;;17.59;51.37
51123;BME280;37162;41.724;13.346;2023-02-17T12:51:33;97879.78;;;17.56;51.54
51123;BME280;37162;41.724;13.346;2023-02-17T12:54:14;97889.06;;;17.54;51.34
51123;BME280;37162;41.724;13.346;2023-02-17T12:59:35;97883.31;;;17.44;51.49
51123;BME280;37162;41.724;13.346;2023-02-17T13:02:04;97882.69;;;17.35;51.57
51123;BME280;37162;41.724;13.346;2023-02-17T13:04:32;97888.88;;;17.35;51.36
51123;BME280;37162;41.724;13.346;2023-02-17T13:09:58;97885.38;;;17.28;50.72
51123;BME280;37162;41.724;13.346;2023-02-17T13:14:57;97885.78;;;17.25;51.71
51123;BME280;37162;41.724;13.346;2023-02-17T13:17:30;97877.13;;;17.23;52.49
51123;BME280;37162;41.724;13.346;2023-02-17T13:20:23;97880.44;;;17.19;52.78
51123;BME280;37162;41.724;13.346;2023-02-17T13:22:50;97873.81;;;17.15;53.08
51123;BME280;37162;41.724;13.346;2023-02-17T13:25:32;97856.47;;;17.04;53.36
51123;BME280;37162;41.724;13.346;2023-02-17T13:28:00;97864.94;;;17.07;53.39
51123;BME280;37162;41.724;13.346;2023-02-17T13:30:44;97866.41;;;17.03;53.68
51123;BME280;37162;41.724;13.346;2023-02-17T13:35:44;97840.75;;;16.88;54.12
51123;BME280;37162;41.724;13.346;2023-02-17T13:38:10;97838.28;;;16.79;53.51
51123;BME280;37162;41.724;13.346;2023-02-17T13:40:41;97858.50;;;16.89;53.53
51123;BME280;37162;41.724;13.346;2023-02-17T13:43:28;97861.81;;;16.84;53.12
51123;BME280;37162;41.724;13.346;2023-02-17T13:46:00;97863.06;;;16.81;53.47
51123;BME280;37162;41.724;13.346;2023-02-17T13:48:31;97860.59;;;16.80;54.30
51123;BME280;37162;41.724;13.346;2023-02-17T13:51:04;97866.16;;;16.78;54.10
51123;BME280;37162;41.724;13.346;2023-02-17T13:53:38;97863.91;;;16.75;54.32
51123;BME280;37162;41.724;13.346;2023-02-17T13:56:05;97858.72;;;16.74;54.28
51123;BME280;37162;41.724;13.346;2023-02-17T13:58:33;97842.97;;;16.64;54.28
51123;BME280;37162;41.724;13.346;2023-02-17T14:01:00;97858.28;;;16.70;54.66
51123;BME280;37162;41.724;13.346;2023-02-17T14:03:34;97863.84;;;16.69;54.50
51123;BME280;37162;41.724;13.346;2023-02-17T14:06:08;97859.72;;;16.66;54.80
51123;BME280;37162;41.724;13.346;2023-02-17T14:08:37;97863.41;;;16.65;55.16
51123;BME280;37162;41.724;13.346;2023-02-17T14:11:07;97859.91;;;16.65;55.06
51123;BME280;37162;41.724;13.346;2023-02-17T14:13:35;97852.91;;;16.64;55.23
51123;BME280;37162;41.724;13.346;2023-02-17T14:16:01;97852.28;;;16.61;55.28
51123;BME280;37162;41.724;13.346;2023-02-17T14:18:36;97855.78;;;16.62;55.71
51123;BME280;37162;41.724;13.346;2023-02-17T14:23:50;97862.38;;;16.59;56.10
51123;BME280;37162;41.724;13.346;2023-02-17T14:26:33;97868.78;;;16.58;56.24